sensor_id;sensor_type;location;lat;lon;timestamp;pressure;altitude;pressure_sealevel;temperature;humidity
706;BME280;21234;48.690;9.016;2023-03-03T00:00:44;96248.75;;;1.33;88.86
706;BME280;21234;48.690;9.016;2023-03-03T00:03:15;96252.25;;;1.33;88.90
706;BME280;21234;48.690;9.016;2023-03-03T00:05:42;96244.81;;;1.29;89.18
706;BME280;21234;48.690;9.016;2023-03-03T00:08:09;96254.91;;;1.27;89.54
706;BME280;21234;48.690;9.016;2023-03-03T00:10:36;96262.13;;;1.33;89.33
706;BME280;21234;48.690;9.016;2023-03-03T00:13:05;96268.59;;;1.17;89.83
706;BME280;21234;48.690;9.016;2023-03-03T00:15:38;96255.94;;;1.32;89.82
706;BME280;21234;48.690;9.016;2023-03-03T00:18:16;96258.63;;;1.32;88.99
706;BME280;21234;48.690;9.016;2023-03-03T00:20:47;96266.66;;;1.32;89.15
706;BME280;21234;48.690;9.016;2023-03-03T00:23:19;96259.72;;;1.38;88.56
706;BME280;21234;48.690;9.016;2023-03-03T00:25:49;96265.00;;;1.31;88.61
706;BME280;21234;48.690;9.016;2023-03-03T00:28:24;96264.59;;;1.28;89.11
706;BME280;21234;48.690;9.016;2023-03-03T00:30:53;96270.25;;;1.18;89.33
706;BME280;21234;48.690;9.016;2023-03-03T00:33:31;96260.44;;;1.25;89.31
706;BME280;21234;48.690;9.016;2023-03-03T00:36:09;96258.59;;;1.26;89.67
706;BME280;21234;48.690;9.016;2023-03-03T00:38:47;96266.38;;;1.21;89.17
706;BME280;21234;48.690;9.016;2023-03-03T00:41:18;96262.78;;;1.14;89.00
706;BME280;21234;48.690;9.016;2023-03-03T00:43:47;96263.25;;;1.17;89.52
706;BME280;21234;48.690;9.016;2023-03-03T00:46:16;96262.97;;;1.12;89.57
706;BME280;21234;48.690;9.016;2023-03-03T00:48:44;96258.19;;;1.08;89.49
706;BME280;21234;48.690;9.016;2023-03-03T00:51:20;96265.28;;;1.15;89.68
706;BME280;21234;48.690;9.016;2023-03-03T00:53:51;96265.47;;;1.14;88.93
706;BME280;21234;48.690;9.016;2023-03-03T00:56:18;96260.69;;;1.09;89.51
706;BME280;21234;48.690;9.016;2023-03-03T00:58:44;96256.81;;;1.12;88.92
706;BME280;21234;48.690;9.016;2023-03-03T01:01:14;96255.06;;;1.04;88.77
706;BME280;21234;48.690;9.016;2023-03-03T01:03:40;96260.16;;;0.99;89.06
706;BME280;21234;48.690;9.016;2023-03-03T01:06:09;96252.72;;;0.94;88.79
706;BME280;21234;48.690;9.016;2023-03-03T01:08:36;96259.84;;;0.87;89.71
706;BME280;21234;48.690;9.016;2023-03-03T01:11:05;96254.69;;;0.86;89.06
706;BME280;21234;48.690;9.016;2023-03-03T01:13:35;96252.66;;;0.88;89.30
706;BME280;21234;48.690;9.016;2023-03-03T01:16:03;96261.19;;;0.98;89.12
706;BME280;21234;48.690;9.016;2023-03-03T01:18:31;96253.56;;;0.95;88.39
706;BME280;21234;48.690;9.016;2023-03-03T01:20:58;96256.63;;;0.92;88.73
706;BME280;21234;48.690;9.016;2023-03-03T01:23:26;96254.81;;;0.78;88.99
706;BME280;21234;48.690;9.016;2023-03-03T01:25:53;96256.91;;;0.82;89.45
706;BME280;21234;48.690;9.016;2023-03-03T01:28:20;96260.16;;;0.78;89.70
706;BME280;21234;48.690;9.016;2023-03-03T01:30:47;96254.72;;;0.71;89.74
706;BME280;21234;48.690;9.016;2023-03-03T01:33:13;96251.09;;;0.57;90.10
706;BME280;21234;48.690;9.016;2023-03-03T01:35:44;96254.59;;;0.58;90.97
706;BME280;21234;48.690;9.016;2023-03-03T01:38:11;96255.06;;;0.61;90.57
706;BME280;21234;48.690;9.016;2023-03-03T01:40:39;96252.00;;;0.64;90.00
706;BME280;21234;48.690;9.016;2023-03-03T01:43:06;96251.22;;;0.71;89.84
706;BME280;21234;48.690;9.016;2023-03-03T01:45:44;96257.28;;;0.58;89.96
706;BME280;21234;48.690;9.016;2023-03-03T01:48:32;96265.88;;;0.53;90.32
706;BME280;21234;48.690;9.016;2023-03-03T01:51:03;96263.09;;;0.47;90.67
706;BME280;21234;48.690;9.016;2023-03-03T01:53:33;96266.88;;;0.38;91.09
706;BME280;21234;48.690;9.016;2023-03-03T01:56:02;96258.13;;;0.44;90.51
706;BME280;21234;48.690;9.016;2023-03-03T01:58:32;96250.94;;;0.44;90.31
706;BME280;21234;48.690;9.016;2023-03-03T02:01:02;96252.50;;;0.39;90.27
706;BME280;21234;48.690;9.016;2023-03-03T02:03:31;96254.25;;;0.46;89.68
706;BME280;21234;48.690;9.016;2023-03-03T02:06:02;96244.19;;;0.48;89.99
706;BME280;21234;48.690;9.016;2023-03-03T02:08:35;96247.97;;;0.54;89.58
706;BME280;21234;48.690;9.016;2023-03-03T02:11:05;96241.06;;;0.45;89.97
706;BME280;21234;48.690;9.016;2023-03-03T02:13:32;96238.69;;;0.35;90.00
706;BME280;21234;48.690;9.016;2023-03-03T02:15:59;96239.44;;;0.29;90.25
706;BME280;21234;48.690;9.016;2023-03-03T02:18:26;96235.22;;;0.20;90.77
706;BME280;21234;48.690;9.016;2023-03-03T02:20:56;96236.03;;;0.20;90.46
706;BME280;21234;48.690;9.016;2023-03-03T02:23:29;96237.06;;;0.19;90.39
706;BME280;21234;48.690;9.016;2023-03-03T02:26:09;96232.91;;;0.31;90.05
706;BME280;21234;48.690;9.016;2023-03-03T02:28:37;96227.28;;;0.26;90.35
706;BME280;21234;48.690;9.016;2023-03-03T02:31:06;96224.47;;;0.34;89.95
706;BME280;21234;48.690;9.016;2023-03-03T02:33:35;96229.69;;;0.21;90.39
706;BME280;21234;48.690;9.016;2023-03-03T02:36:02;96229.31;;;0.24;90.52
706;BME280;21234;48.690;9.016;2023-03-03T02:38:31;96227.56;;;0.17;90.80
706;BME280;21234;48.690;9.016;2023-03-03T02:41:08;96229.03;;;0.05;90.74
706;BME280;21234;48.690;9.016;2023-03-03T02:43:42;96228.41;;;0.03;90.59
706;BME280;21234;48.690;9.016;2023-03-03T02:46:12;96225.75;;;-0.12;91.30
706;BME280;21234;48.690;9.016;2023-03-03T02:48:38;96232.22;;;-0.07;92.20
706;BME280;21234;48.690;9.016;2023-03-03T02:51:05;96224.28;;;0.00;91.38
706;BME280;21234;48.690;9.016;2023-03-03T02:53:32;96226.38;;;0.05;90.81
706;BME280;21234;48.690;9.016;2023-03-03T02:55:59;96234.41;;;-0.10;91.35
706;BME280;21234;48.690;9.016;2023-03-03T02:58:27;96234.03;;;-0.22;92.29
706;BME280;21234;48.690;9.016;2023-03-03T03:00:53;96238.56;;;-0.08;92.69
706;BME280;21234;48.690;9.016;2023-03-03T03:03:20;96237.00;;;-0.02;92.64
706;BME280;21234;48.690;9.016;2023-03-03T03:05:47;96237.34;;;0.10;91.91
706;BME280;21234;48.690;9.016;2023-03-03T03:08:13;96237.81;;;0.13;92.66
706;BME280;21234;48.690;9.016;2023-03-03T03:10:40;96239.09;;;0.17;91.91
706;BME280;21234;48.690;9.016;2023-03-03T03:13:07;96240.56;;;0.20;91.40
706;BME280;21234;48.690;9.016;2023-03-03T03:15:35;96249.59;;;0.19;91.92
706;BME280;21234;48.690;9.016;2023-03-03T03:18:02;96243.59;;;0.17;92.70
706;BME280;21234;48.690;9.016;2023-03-03T03:20:29;96245.34;;;0.24;93.06
706;BME280;21234;48.690;9.016;2023-03-03T03:22:56;96246.47;;;0.30;92.80
706;BME280;21234;48.690;9.016;2023-03-03T03:25:22;96243.38;;;0.33;92.12
706;BME280;21234;48.690;9.016;2023-03-03T03:27:49;96242.13;;;0.29;92.34
706;BME280;21234;48.690;9.016;2023-03-03T03:30:16;96240.19;;;0.23;92.82
706;BME280;21234;48.690;9.016;2023-03-03T03:32:46;96245.47;;;0.52;92.41
706;BME280;21234;48.690;9.016;2023-03-03T03:35:13;96235.53;;;0.46;92.07
706;BME280;21234;48.690;9.016;2023-03-03T03:37:40;96238.84;;;0.48;92.50
706;BME280;21234;48.690;9.016;2023-03-03T03:40:07;96233.03;;;0.45;93.11
706;BME280;21234;48.690;9.016;2023-03-03T03:42:34;96240.88;;;0.46;92.63
706;BME280;21234;48.690;9.016;2023-03-03T03:45:03;96239.50;;;0.50;92.07
706;BME280;21234;48.690;9.016;2023-03-03T03:47:30;96240.69;;;0.48;92.11
706;BME280;21234;48.690;9.016;2023-03-03T03:49:58;96238.28;;;0.53;92.00
706;BME280;21234;48.690;9.016;2023-03-03T03:52:25;96236.91;;;0.42;92.01
706;BME280;21234;48.690;9.016;2023-03-03T03:54:52;96233.59;;;0.40;92.57
706;BME280;21234;48.690;9.016;2023-03-03T03:57:18;96240.22;;;0.44;91.72
706;BME280;21234;48.690;9.016;2023-03-03T03:59:45;96240.78;;;0.40;91.78
706;BME280;21234;48.690;9.016;2023-03-03T04:02:12;96244.66;;;0.37;92.87
706;BME280;21234;48.690;9.016;2023-03-03T04:04:38;96243.09;;;0.43;92.97
706;BME280;21234;48.690;9.016;2023-03-03T04:07:07;96245.78;;;0.43;92.54
706;BME280;21234;48.690;9.016;2023-03-03T04:09:34;96240.16;;;0.38;93.68
706;BME280;21234;48.690;9.016;2023-03-03T04:12:00;96243.00;;;0.36;93.63
706;BME280;21234;48.690;9.016;2023-03-03T04:14:27;96233.59;;;0.40;92.04
706;BME280;21234;48.690;9.016;2023-03-03T04:16:54;96239.00;;;0.25;92.69
706;BME280;21234;48.690;9.016;2023-03-03T04:19:21;96238.13;;;0.40;93.28
706;BME280;21234;48.690;9.016;2023-03-03T04:21:48;96245.94;;;0.41;93.16
706;BME280;21234;48.690;9.016;2023-03-03T04:24:16;96246.13;;;0.54;93.24
706;BME280;21234;48.690;9.016;2023-03-03T04:26:43;96247.41;;;0.58;92.24
706;BME280;21234;48.690;9.016;2023-03-03T04:29:10;96243.91;;;0.58;92.14
706;BME280;21234;48.690;9.016;2023-03-03T04:31:37;96244.22;;;0.70;92.20
706;BME280;21234;48.690;9.016;2023-03-03T04:34:03;96251.69;;;0.74;91.64
706;BME280;21234;48.690;9.016;2023-03-03T04:36:30;96248.69;;;0.84;91.61
706;BME280;21234;48.690;9.016;2023-03-03T04:38:57;96249.28;;;0.79;90.99
706;BME280;21234;48.690;9.016;2023-03-03T04:41:25;96248.81;;;0.76;91.03
706;BME280;21234;48.690;9.016;2023-03-03T04:43:52;96249.16;;;0.87;90.67
706;BME280;21234;48.690;9.016;2023-03-03T04:46:18;96255.56;;;0.72;90.48
706;BME280;21234;48.690;9.016;2023-03-03T04:48:45;96255.38;;;0.73;91.52
706;BME280;21234;48.690;9.016;2023-03-03T04:51:12;96252.88;;;0.72;91.57
706;BME280;21234;48.690;9.016;2023-03-03T04:53:41;96260.47;;;0.68;91.16
706;BME280;21234;48.690;9.016;2023-03-03T04:56:07;96254.09;;;0.69;91.62
706;BME280;21234;48.690;9.016;2023-03-03T04:58:36;96253.63;;;0.65;91.29
706;BME280;21234;48.690;9.016;2023-03-03T05:01:04;96256.91;;;0.61;91.65
706;BME280;21234;48.690;9.016;2023-03-03T05:03:31;96260.97;;;0.57;92.81
706;BME280;21234;48.690;9.016;2023-03-03T05:05:58;96263.66;;;0.57;92.43
706;BME280;21234;48.690;9.016;2023-03-03T05:08:25;96271.56;;;0.65;93.28
706;BME280;21234;48.690;9.016;2023-03-03T05:10:52;96277.97;;;0.71;93.53
706;BME280;21234;48.690;9.016;2023-03-03T05:13:20;96277.94;;;0.85;92.13
706;BME280;21234;48.690;9.016;2023-03-03T05:15:51;96270.56;;;0.87;91.71
706;BME280;21234;48.690;9.016;2023-03-03T05:18:20;96275.19;;;0.79;91.79
706;BME280;21234;48.690;9.016;2023-03-03T05:20:47;96275.75;;;0.74;91.58
706;BME280;21234;48.690;9.016;2023-03-03T05:23:15;96278.25;;;0.76;92.59
706;BME280;21234;48.690;9.016;2023-03-03T05:25:42;96283.34;;;0.71;91.51
706;BME280;21234;48.690;9.016;2023-03-03T05:28:09;96272.19;;;0.67;92.55
706;BME280;21234;48.690;9.016;2023-03-03T05:30:36;96276.47;;;0.83;92.98
706;BME280;21234;48.690;9.016;2023-03-03T05:33:05;96275.28;;;0.85;92.89
706;BME280;21234;48.690;9.016;2023-03-03T05:35:33;96279.28;;;0.75;91.80
706;BME280;21234;48.690;9.016;2023-03-03T05:38:01;96271.50;;;0.80;92.16
706;BME280;21234;48.690;9.016;2023-03-03T05:40:27;96273.53;;;0.78;91.48
706;BME280;21234;48.690;9.016;2023-03-03T05:42:54;96272.59;;;0.85;91.94
706;BME280;21234;48.690;9.016;2023-03-03T05:45:21;96281.47;;;0.86;91.52
706;BME280;21234;48.690;9.016;2023-03-03T05:47:49;96283.38;;;0.92;91.09
706;BME280;21234;48.690;9.016;2023-03-03T05:50:18;96282.22;;;1.01;91.58
706;BME280;21234;48.690;9.016;2023-03-03T05:52:47;96281.53;;;0.92;92.37
706;BME280;21234;48.690;9.016;2023-03-03T05:55:13;96283.75;;;0.89;92.74
706;BME280;21234;48.690;9.016;2023-03-03T05:57:40;96290.06;;;1.02;92.16
706;BME280;21234;48.690;9.016;2023-03-03T06:00:09;96297.25;;;1.02;91.51
706;BME280;21234;48.690;9.016;2023-03-03T06:02:36;96292.50;;;0.97;91.73
706;BME280;21234;48.690;9.016;2023-03-03T06:05:03;96294.34;;;0.97;92.11
706;BME280;21234;48.690;9.016;2023-03-03T06:07:31;96298.75;;;1.05;91.96
706;BME280;21234;48.690;9.016;2023-03-03T06:09:58;96297.91;;;1.04;92.09
706;BME280;21234;48.690;9.016;2023-03-03T06:12:25;96296.84;;;1.20;91.51
706;BME280;21234;48.690;9.016;2023-03-03T06:14:51;96304.03;;;1.19;90.79
706;BME280;21234;48.690;9.016;2023-03-03T06:17:18;96311.19;;;1.12;90.90
706;BME280;21234;48.690;9.016;2023-03-03T06:19:45;96304.53;;;1.08;91.96
706;BME280;21234;48.690;9.016;2023-03-03T06:22:12;96304.16;;;1.11;91.79
706;BME280;21234;48.690;9.016;2023-03-03T06:24:41;96304.34;;;1.10;91.46
706;BME280;21234;48.690;9.016;2023-03-03T06:27:08;96315.31;;;1.15;91.49
706;BME280;21234;48.690;9.016;2023-03-03T06:29:35;96305.00;;;1.12;91.61
706;BME280;21234;48.690;9.016;2023-03-03T06:32:02;96316.78;;;1.17;91.26
706;BME280;21234;48.690;9.016;2023-03-03T06:34:29;96318.56;;;1.10;91.42
706;BME280;21234;48.690;9.016;2023-03-03T06:36:55;96327.38;;;1.25;92.17
706;BME280;21234;48.690;9.016;2023-03-03T06:39:22;96322.25;;;1.30;91.84
706;BME280;21234;48.690;9.016;2023-03-03T06:41:50;96329.06;;;1.26;91.69
706;BME280;21234;48.690;9.016;2023-03-03T06:44:17;96324.72;;;1.25;90.67
706;BME280;21234;48.690;9.016;2023-03-03T06:46:44;96328.25;;;1.32;90.73
706;BME280;21234;48.690;9.016;2023-03-03T06:49:10;96336.09;;;1.34;90.44
706;BME280;21234;48.690;9.016;2023-03-03T06:51:38;96337.56;;;1.37;90.44
706;BME280;21234;48.690;9.016;2023-03-03T06:54:10;96347.09;;;1.39;90.43
706;BME280;21234;48.690;9.016;2023-03-03T06:56:37;96347.47;;;1.36;90.64
706;BME280;21234;48.690;9.016;2023-03-03T06:59:10;96344.28;;;1.47;89.22
706;BME280;21234;48.690;9.016;2023-03-03T07:01:37;96343.84;;;1.44;88.83
706;BME280;21234;48.690;9.016;2023-03-03T07:04:10;96342.38;;;1.41;89.50
706;BME280;21234;48.690;9.016;2023-03-03T07:06:39;96347.78;;;1.48;89.32
706;BME280;21234;48.690;9.016;2023-03-03T07:09:12;96351.56;;;1.53;89.15
706;BME280;21234;48.690;9.016;2023-03-03T07:11:41;96350.72;;;1.53;88.18
706;BME280;21234;48.690;9.016;2023-03-03T07:14:14;96349.72;;;1.54;87.83
706;BME280;21234;48.690;9.016;2023-03-03T07:16:41;96363.19;;;1.60;87.47
706;BME280;21234;48.690;9.016;2023-03-03T07:19:16;96357.81;;;1.60;86.50
706;BME280;21234;48.690;9.016;2023-03-03T07:21:43;96357.81;;;1.60;85.90
706;BME280;21234;48.690;9.016;2023-03-03T07:24:23;96364.00;;;1.61;85.88
706;BME280;21234;48.690;9.016;2023-03-03T07:26:51;96365.44;;;1.63;85.35
706;BME280;21234;48.690;9.016;2023-03-03T07:29:23;96369.97;;;1.63;85.25
706;BME280;21234;48.690;9.016;2023-03-03T07:31:51;96375.75;;;1.60;84.75
706;BME280;21234;48.690;9.016;2023-03-03T07:34:21;96374.53;;;1.62;85.69
706;BME280;21234;48.690;9.016;2023-03-03T07:36:49;96365.13;;;1.73;84.88
706;BME280;21234;48.690;9.016;2023-03-03T07:39:25;96373.47;;;1.85;84.31
706;BME280;21234;48.690;9.016;2023-03-03T07:41:55;96372.53;;;1.92;84.17
706;BME280;21234;48.690;9.016;2023-03-03T07:44:32;96372.84;;;1.83;84.01
706;BME280;21234;48.690;9.016;2023-03-03T07:47:14;96369.44;;;1.95;84.32
706;BME280;21234;48.690;9.016;2023-03-03T07:49:42;96371.59;;;2.07;84.08
706;BME280;21234;48.690;9.016;2023-03-03T07:52:28;96371.91;;;1.97;82.15
706;BME280;21234;48.690;9.016;2023-03-03T07:54:58;96375.84;;;1.94;81.51
706;BME280;21234;48.690;9.016;2023-03-03T07:57:28;96378.75;;;1.99;82.10
706;BME280;21234;48.690;9.016;2023-03-03T08:03:11;96380.53;;;2.14;78.89
706;BME280;21234;48.690;9.016;2023-03-03T08:05:42;96382.44;;;2.20;78.68
706;BME280;21234;48.690;9.016;2023-03-03T08:08:14;96394.50;;;2.37;79.93
706;BME280;21234;48.690;9.016;2023-03-03T08:10:46;96392.50;;;2.46;79.02
706;BME280;21234;48.690;9.016;2023-03-03T08:13:17;96390.84;;;2.45;77.24
706;BME280;21234;48.690;9.016;2023-03-03T08:15:48;96385.28;;;2.46;77.31
706;BME280;21234;48.690;9.016;2023-03-03T08:18:23;96380.13;;;2.45;77.16
706;BME280;21234;48.690;9.016;2023-03-03T08:20:55;96381.38;;;2.49;77.19
706;BME280;21234;48.690;9.016;2023-03-03T08:23:22;96369.31;;;2.73;76.56
706;BME280;21234;48.690;9.016;2023-03-03T08:25:50;96382.03;;;2.92;77.12
706;BME280;21234;48.690;9.016;2023-03-03T08:28:17;96377.22;;;2.81;76.42
706;BME280;21234;48.690;9.016;2023-03-03T08:30:46;96382.63;;;3.48;75.57
706;BME280;21234;48.690;9.016;2023-03-03T08:33:14;96381.81;;;3.61;74.94
706;BME280;21234;48.690;9.016;2023-03-03T08:35:41;96384.16;;;3.84;72.63
706;BME280;21234;48.690;9.016;2023-03-03T08:38:09;96388.69;;;4.43;71.08
706;BME280;21234;48.690;9.016;2023-03-03T08:40:36;96389.13;;;4.39;69.48
706;BME280;21234;48.690;9.016;2023-03-03T08:43:03;96390.34;;;4.24;69.69
706;BME280;21234;48.690;9.016;2023-03-03T08:45:30;96380.59;;;5.20;67.24
706;BME280;21234;48.690;9.016;2023-03-03T08:47:58;96382.94;;;5.86;65.11
706;BME280;21234;48.690;9.016;2023-03-03T08:50:26;96375.56;;;6.31;61.04
706;BME280;21234;48.690;9.016;2023-03-03T08:52:52;96386.06;;;6.83;60.17
706;BME280;21234;48.690;9.016;2023-03-03T08:55:19;96379.34;;;6.73;59.28
706;BME280;21234;48.690;9.016;2023-03-03T08:57:46;96386.19;;;6.94;59.06
706;BME280;21234;48.690;9.016;2023-03-03T09:00:14;96383.63;;;7.18;58.50
706;BME280;21234;48.690;9.016;2023-03-03T09:02:42;96388.66;;;6.96;58.41
706;BME280;21234;48.690;9.016;2023-03-03T09:05:11;96388.00;;;7.00;58.35
706;BME280;21234;48.690;9.016;2023-03-03T09:07:38;96392.03;;;6.23;59.25
706;BME280;21234;48.690;9.016;2023-03-03T09:10:06;96395.47;;;6.37;60.42
706;BME280;21234;48.690;9.016;2023-03-03T09:12:34;96400.00;;;6.43;61.04
706;BME280;21234;48.690;9.016;2023-03-03T09:15:12;96401.31;;;6.34;61.76
706;BME280;21234;48.690;9.016;2023-03-03T09:17:40;96406.44;;;6.17;61.81
706;BME280;21234;48.690;9.016;2023-03-03T09:20:23;96413.72;;;5.79;61.29
706;BME280;21234;48.690;9.016;2023-03-03T09:22:50;96412.06;;;5.33;62.85
706;BME280;21234;48.690;9.016;2023-03-03T09:25:22;96417.53;;;5.20;63.83
706;BME280;21234;48.690;9.016;2023-03-03T09:27:52;96417.28;;;5.21;64.79
706;BME280;21234;48.690;9.016;2023-03-03T09:30:35;96417.75;;;5.12;63.59
706;BME280;21234;48.690;9.016;2023-03-03T09:33:20;96413.81;;;5.14;64.49
706;BME280;21234;48.690;9.016;2023-03-03T09:35:51;96420.19;;;5.26;63.51
706;BME280;21234;48.690;9.016;2023-03-03T09:38:28;96416.09;;;5.17;64.56
706;BME280;21234;48.690;9.016;2023-03-03T09:41:10;96414.34;;;5.36;65.03
706;BME280;21234;48.690;9.016;2023-03-03T09:43:47;96417.94;;;5.61;63.65
706;BME280;21234;48.690;9.016;2023-03-03T09:46:27;96412.97;;;5.58;64.07
706;BME280;21234;48.690;9.016;2023-03-03T09:49:04;96425.69;;;5.51;62.94
706;BME280;21234;48.690;9.016;2023-03-03T09:51:51;96420.53;;;5.43;62.68
706;BME280;21234;48.690;9.016;2023-03-03T09:54:34;96418.28;;;5.40;63.53
706;BME280;21234;48.690;9.016;2023-03-03T09:57:11;96420.53;;;5.43;64.58
706;BME280;21234;48.690;9.016;2023-03-03T09:59:56;96411.66;;;5.74;62.36
706;BME280;21234;48.690;9.016;2023-03-03T10:02:37;96409.69;;;5.94;63.08
706;BME280;21234;48.690;9.016;2023-03-03T10:05:27;96416.84;;;6.38;61.32
706;BME280;21234;48.690;9.016;2023-03-03T10:08:18;96418.34;;;6.34;61.76
706;BME280;21234;48.690;9.016;2023-03-03T10:10:52;96417.34;;;6.29;60.89
706;BME280;21234;48.690;9.016;2023-03-03T10:13:30;96423.38;;;6.24;61.97
706;BME280;21234;48.690;9.016;2023-03-03T10:16:13;96420.16;;;6.16;60.58
706;BME280;21234;48.690;9.016;2023-03-03T10:18:52;96417.13;;;6.30;62.11
706;BME280;21234;48.690;9.016;2023-03-03T10:21:24;96418.38;;;6.28;62.16
706;BME280;21234;48.690;9.016;2023-03-03T10:24:00;96419.63;;;6.50;62.40
706;BME280;21234;48.690;9.016;2023-03-03T10:26:47;96420.03;;;6.54;61.50
706;BME280;21234;48.690;9.016;2023-03-03T10:29:25;96416.03;;;6.38;59.26
706;BME280;21234;48.690;9.016;2023-03-03T10:32:06;96421.66;;;6.05;59.84
706;BME280;21234;48.690;9.016;2023-03-03T10:34:53;96422.34;;;6.25;61.25
706;BME280;21234;48.690;9.016;2023-03-03T10:37:31;96422.81;;;6.90;60.68
706;BME280;21234;48.690;9.016;2023-03-03T10:40:08;96423.44;;;7.29;59.13
706;BME280;21234;48.690;9.016;2023-03-03T10:42:57;96422.22;;;7.25;58.20
706;BME280;21234;48.690;9.016;2023-03-03T10:48:41;96422.28;;;6.82;59.08
706;BME280;21234;48.690;9.016;2023-03-03T10:51:20;96419.53;;;6.63;58.77
706;BME280;21234;48.690;9.016;2023-03-03T10:53:57;96421.59;;;6.86;60.37
706;BME280;21234;48.690;9.016;2023-03-03T10:56:35;96415.75;;;6.89;59.24
706;BME280;21234;48.690;9.016;2023-03-03T10:59:15;96410.66;;;7.18;57.47
706;BME280;21234;48.690;9.016;2023-03-03T11:01:49;96414.41;;;6.98;56.37
706;BME280;21234;48.690;9.016;2023-03-03T11:04:41;96412.22;;;7.25;58.73
706;BME280;21234;48.690;9.016;2023-03-03T11:07:12;96417.50;;;7.38;55.17
706;BME280;21234;48.690;9.016;2023-03-03T11:09:50;96413.63;;;7.64;54.92
706;BME280;21234;48.690;9.016;2023-03-03T11:12:36;96403.34;;;7.85;55.19
706;BME280;21234;48.690;9.016;2023-03-03T11:15:21;96406.84;;;7.73;53.99
706;BME280;21234;48.690;9.016;2023-03-03T11:18:02;96409.63;;;7.97;53.57
706;BME280;21234;48.690;9.016;2023-03-03T11:20:41;96411.38;;;7.91;53.77
706;BME280;21234;48.690;9.016;2023-03-03T11:23:26;96417.06;;;8.01;53.88
706;BME280;21234;48.690;9.016;2023-03-03T11:26:06;96416.00;;;8.32;52.95
706;BME280;21234;48.690;9.016;2023-03-03T11:28:47;96409.94;;;8.60;54.04
706;BME280;21234;48.690;9.016;2023-03-03T11:31:21;96409.22;;;8.65;53.38
706;BME280;21234;48.690;9.016;2023-03-03T11:33:59;96410.31;;;8.75;52.20
706;BME280;21234;48.690;9.016;2023-03-03T11:36:31;96404.50;;;8.60;52.48
706;BME280;21234;48.690;9.016;2023-03-03T11:39:02;96412.88;;;8.70;52.46
706;BME280;21234;48.690;9.016;2023-03-03T11:41:32;96400.88;;;8.66;52.93
706;BME280;21234;48.690;9.016;2023-03-03T11:44:17;96407.81;;;8.62;53.55
706;BME280;21234;48.690;9.016;2023-03-03T11:46:48;96410.97;;;8.59;52.92
706;BME280;21234;48.690;9.016;2023-03-03T11:49:21;96410.06;;;8.65;53.17
706;BME280;21234;48.690;9.016;2023-03-03T11:51:59;96404.84;;;8.52;53.70
706;BME280;21234;48.690;9.016;2023-03-03T11:54:30;96405.78;;;8.34;53.28
706;BME280;21234;48.690;9.016;2023-03-03T11:57:10;96408.03;;;8.37;53.49
706;BME280;21234;48.690;9.016;2023-03-03T11:59:49;96395.19;;;8.15;53.88
706;BME280;21234;48.690;9.016;2023-03-03T12:02:29;96384.59;;;8.01;54.18
706;BME280;21234;48.690;9.016;2023-03-03T12:05:05;96387.16;;;7.96;53.87
706;BME280;21234;48.690;9.016;2023-03-03T12:07:41;96384.59;;;8.13;53.17
706;BME280;21234;48.690;9.016;2023-03-03T12:10:23;96378.03;;;8.21;53.18
706;BME280;21234;48.690;9.016;2023-03-03T12:12:59;96380.13;;;8.19;53.73
706;BME280;21234;48.690;9.016;2023-03-03T12:15:34;96382.28;;;8.28;53.74
706;BME280;21234;48.690;9.016;2023-03-03T12:18:31;96381.78;;;8.61;53.59
706;BME280;21234;48.690;9.016;2023-03-03T12:21:09;96387.91;;;8.68;52.54
706;BME280;21234;48.690;9.016;2023-03-03T12:23:51;96382.72;;;8.44;52.76
706;BME280;21234;48.690;9.016;2023-03-03T12:26:29;96387.03;;;8.33;53.72
706;BME280;21234;48.690;9.016;2023-03-03T12:29:03;96383.63;;;8.49;52.29
706;BME280;21234;48.690;9.016;2023-03-03T12:31:40;96383.53;;;8.56;52.21
706;BME280;21234;48.690;9.016;2023-03-03T12:34:17;96383.13;;;8.29;52.13
706;BME280;21234;48.690;9.016;2023-03-03T12:37:08;96389.78;;;8.45;51.72
706;BME280;21234;48.690;9.016;2023-03-03T12:39:44;96386.00;;;8.34;52.22
706;BME280;21234;48.690;9.016;2023-03-03T12:42:22;96377.66;;;8.17;52.24
706;BME280;21234;48.690;9.016;2023-03-03T12:44:55;96382.81;;;8.37;52.54
706;BME280;21234;48.690;9.016;2023-03-03T12:47:32;96376.38;;;8.73;52.21
706;BME280;21234;48.690;9.016;2023-03-03T12:50:15;96391.19;;;8.82;50.96
706;BME280;21234;48.690;9.016;2023-03-03T12:52:53;96380.97;;;8.72;50.00
706;BME280;21234;48.690;9.016;2023-03-03T12:55:47;96387.91;;;9.03;50.22
706;BME280;21234;48.690;9.016;2023-03-03T12:58:26;96379.00;;;9.20;48.33
706;BME280;21234;48.690;9.016;2023-03-03T13:01:02;96379.97;;;9.14;49.26
706;BME280;21234;48.690;9.016;2023-03-03T13:03:37;96375.91;;;9.39;48.85
706;BME280;21234;48.690;9.016;2023-03-03T13:06:12;96378.06;;;9.66;49.36
706;BME280;21234;48.690;9.016;2023-03-03T13:08:55;96373.50;;;9.55;47.68
706;BME280;21234;48.690;9.016;2023-03-03T13:11:39;96369.19;;;9.70;48.43
706;BME280;21234;48.690;9.016;2023-03-03T13:14:17;96372.13;;;10.26;46.88
706;BME280;21234;48.690;9.016;2023-03-03T13:16:51;96369.16;;;10.77;46.04
706;BME280;21234;48.690;9.016;2023-03-03T13:19:27;96370.56;;;10.80;44.87
706;BME280;21234;48.690;9.016;2023-03-03T13:21:59;96370.06;;;10.83;43.98
706;BME280;21234;48.690;9.016;2023-03-03T13:24:37;96373.03;;;10.82;44.52
706;BME280;21234;48.690;9.016;2023-03-03T13:27:10;96361.91;;;10.83;43.73
706;BME280;21234;48.690;9.016;2023-03-03T13:29:41;96365.75;;;11.04;43.50
706;BME280;21234;48.690;9.016;2023-03-03T13:32:11;96364.50;;;11.77;41.36
706;BME280;21234;48.690;9.016;2023-03-03T13:34:48;96365.50;;;12.20;41.35
706;BME280;21234;48.690;9.016;2023-03-03T13:37:20;96359.34;;;12.61;39.76
706;BME280;21234;48.690;9.016;2023-03-03T13:39:54;96357.50;;;13.61;37.95
706;BME280;21234;48.690;9.016;2023-03-03T13:42:24;96350.84;;;14.25;36.28
706;BME280;21234;48.690;9.016;2023-03-03T13:44:54;96355.25;;;14.76;35.11
706;BME280;21234;48.690;9.016;2023-03-03T13:47:29;96353.88;;;14.79;34.96
706;BME280;21234;48.690;9.016;2023-03-03T13:50:13;96351.38;;;15.13;35.08
706;BME280;21234;48.690;9.016;2023-03-03T13:52:48;96352.94;;;15.39;33.96
706;BME280;21234;48.690;9.016;2023-03-03T13:55:21;96348.69;;;17.05;31.82
706;BME280;21234;48.690;9.016;2023-03-03T13:57:59;96344.75;;;17.88;30.35
706;BME280;21234;48.690;9.016;2023-03-03T14:00:33;96342.88;;;17.59;30.27
706;BME280;21234;48.690;9.016;2023-03-03T14:03:12;96338.78;;;17.57;29.55